createdAt,value
2022-12-25T00:00:29.053Z,6.90
2022-12-25T00:03:01.400Z,6.90
2022-12-25T00:05:33.606Z,6.90
2022-12-25T00:08:06.389Z,6.90
2022-12-25T00:10:44.742Z,6.90
2022-12-25T00:13:17.444Z,6.80
2022-12-25T00:15:49.426Z,6.80
2022-12-25T00:18:21.972Z,6.70
2022-12-25T00:21:04.835Z,6.70
2022-12-25T00:23:36.822Z,6.70
2022-12-25T00:26:15.080Z,6.80
2022-12-25T00:28:47.108Z,6.70
2022-12-25T00:31:19.364Z,6.70
2022-12-25T00:33:52.090Z,6.70
2022-12-25T00:36:24.120Z,6.70
2022-12-25T00:38:56.120Z,6.60
2022-12-25T00:41:46.936Z,6.50
2022-12-25T00:44:18.930Z,6.50
2022-12-25T00:46:50.924Z,6.40
2022-12-25T00:49:26.064Z,6.30
2022-12-25T00:51:57.934Z,6.30
2022-12-25T00:54:30.247Z,6.30
2022-12-25T00:57:02.678Z,6.20
2022-12-25T00:59:34.926Z,6.20
2022-12-25T01:02:25.260Z,6.20
2022-12-25T01:04:57.705Z,6.20
2022-12-25T01:07:29.631Z,6.10
2022-12-25T01:10:20.003Z,6.10
2022-12-25T01:12:52.386Z,6.00
2022-12-25T01:15:24.619Z,6.00
2022-12-25T01:17:56.625Z,6.10
2022-12-25T01:20:28.562Z,6.10
2022-12-25T01:23:00.475Z,6.20
2022-12-25T01:25:33.017Z,6.20
2022-12-25T01:28:05.286Z,6.20
2022-12-25T01:30:37.246Z,6.10
2022-12-25T01:33:09.156Z,6.10
2022-12-25T01:35:42.106Z,6.00
2022-12-25T01:38:14.056Z,6.10
2022-12-25T01:40:45.972Z,6.10
2022-12-25T01:43:29.811Z,6.20
2022-12-25T01:46:03.945Z,6.20
2022-12-25T01:48:39.121Z,6.30
2022-12-25T01:51:28.521Z,6.20
2022-12-25T01:54:05.247Z,6.20
2022-12-25T01:56:39.129Z,6.20
2022-12-25T01:59:13.876Z,6.10
2022-12-25T02:01:46.737Z,6.10
2022-12-25T02:04:39.307Z,6.00
2022-12-25T02:07:19.442Z,6.00
2022-12-25T02:09:52.674Z,6.00
2022-12-25T02:12:27.865Z,6.00
2022-12-25T02:15:05.981Z,6.00
2022-12-25T02:17:38.307Z,6.00
2022-12-25T02:20:28.210Z,5.90
2022-12-25T02:23:18.241Z,5.90
2022-12-25T02:25:59.442Z,5.90
2022-12-25T02:28:45.644Z,5.90
2022-12-25T02:31:26.588Z,5.90
2022-12-25T02:34:26.147Z,6.00
2022-12-25T02:37:02.939Z,5.90
2022-12-25T02:39:58.930Z,6.00
2022-12-25T02:43:17.989Z,6.00
2022-12-25T02:46:30.864Z,6.00
2022-12-25T02:49:27.391Z,6.10
2022-12-25T02:52:22.204Z,6.10
2022-12-25T02:55:20.261Z,6.10
2022-12-25T02:58:15.110Z,6.10
2022-12-25T03:01:08.633Z,6.00
2022-12-25T03:04:00.514Z,6.10
2022-12-25T03:06:44.883Z,6.10
2022-12-25T03:09:45.667Z,6.10
2022-12-25T03:12:55.206Z,6.10
2022-12-25T03:15:45.832Z,6.00
2022-12-25T03:18:22.412Z,6.10
2022-12-25T03:21:13.522Z,6.10
2022-12-25T03:24:21.909Z,6.20
2022-12-25T03:26:56.961Z,6.20
2022-12-25T03:29:51.983Z,6.30
2022-12-25T03:32:43.138Z,6.30
2022-12-25T03:36:02.741Z,6.30
2022-12-25T03:39:17.260Z,6.40
2022-12-25T03:42:16.755Z,6.40
2022-12-25T03:45:19.284Z,6.40
2022-12-25T03:48:11.679Z,6.60
2022-12-25T03:51:15.073Z,6.70
2022-12-25T03:54:20.119Z,6.70
2022-12-25T03:57:22.949Z,6.70
2022-12-25T04:00:38.116Z,6.80
2022-12-25T04:03:45.264Z,6.70
2022-12-25T04:06:36.280Z,6.70
2022-12-25T04:09:26.540Z,6.70
2022-12-25T04:12:16.900Z,6.60
2022-12-25T04:15:07.225Z,6.70
2022-12-25T04:17:57.976Z,6.70
2022-12-25T04:20:48.401Z,6.70
2022-12-25T04:23:39.267Z,6.70
2022-12-25T04:26:29.610Z,6.80
2022-12-25T04:29:20.063Z,6.90
2022-12-25T04:32:10.460Z,6.90
2022-12-25T04:35:00.768Z,6.90
2022-12-25T04:37:32.677Z,6.90
2022-12-25T04:40:05.342Z,6.90
2022-12-25T04:42:37.230Z,6.90
2022-12-25T04:45:10.345Z,6.90
2022-12-25T04:47:42.259Z,6.80
2022-12-25T04:50:14.197Z,6.70
2022-12-25T04:52:46.182Z,6.70
2022-12-25T04:55:18.069Z,6.70
2022-12-25T04:57:49.996Z,6.70
2022-12-25T05:00:26.727Z,6.70
2022-12-25T05:02:59.340Z,6.70
2022-12-25T05:05:31.471Z,6.70
2022-12-25T05:08:05.793Z,6.70
2022-12-25T05:10:40.629Z,6.80
2022-12-25T05:13:12.694Z,6.90
2022-12-25T05:15:44.729Z,6.90
2022-12-25T05:18:16.869Z,6.90
2022-12-25T05:20:55.503Z,6.90
2022-12-25T05:23:27.500Z,6.90
2022-12-25T05:25:59.805Z,6.90
2022-12-25T05:28:31.830Z,6.90
2022-12-25T05:31:03.932Z,6.90
2022-12-25T05:33:35.943Z,7.00
2022-12-25T05:36:10.152Z,7.10
2022-12-25T05:38:42.079Z,7.10
2022-12-25T05:41:14.022Z,7.10
2022-12-25T05:43:46.211Z,7.10
2022-12-25T05:46:18.210Z,7.20
2022-12-25T05:48:50.082Z,7.20
2022-12-25T05:51:22.038Z,7.30
2022-12-25T05:53:53.997Z,7.30
2022-12-25T05:56:26.000Z,7.20
2022-12-25T05:58:57.961Z,7.20
2022-12-25T06:01:30.020Z,7.30
2022-12-25T06:04:05.688Z,7.30
2022-12-25T06:06:41.014Z,7.30
2022-12-25T06:09:13.505Z,7.20
2022-12-25T06:11:45.960Z,7.20
2022-12-25T06:14:17.916Z,7.10
2022-12-25T06:16:53.872Z,7.00
2022-12-25T06:19:25.965Z,7.00
2022-12-25T06:21:58.049Z,7.10
2022-12-25T06:24:30.240Z,7.10
2022-12-25T06:27:02.197Z,7.10
2022-12-25T06:29:34.115Z,7.10
2022-12-25T06:32:06.092Z,7.10
2022-12-25T06:34:38.027Z,7.00
2022-12-25T06:37:09.988Z,7.00
2022-12-25T06:39:41.925Z,6.80
2022-12-25T06:42:13.965Z,6.70
2022-12-25T06:44:45.916Z,6.80
2022-12-25T06:47:17.883Z,6.70
2022-12-25T06:49:49.834Z,6.70
2022-12-25T06:52:21.801Z,6.90
2022-12-25T06:54:53.779Z,7.00
2022-12-25T06:57:25.698Z,7.00
2022-12-25T06:59:57.592Z,7.00
2022-12-25T07:02:30.089Z,7.10
2022-12-25T07:05:04.071Z,7.20
2022-12-25T07:07:35.977Z,7.30
2022-12-25T07:10:08.483Z,7.30
2022-12-25T07:12:40.420Z,7.30
2022-12-25T07:15:12.333Z,7.20
2022-12-25T07:17:44.291Z,7.40
2022-12-25T07:20:16.199Z,7.50
2022-12-25T07:22:48.139Z,7.60
2022-12-25T07:25:20.027Z,7.70
2022-12-25T07:27:51.898Z,7.60
2022-12-25T07:30:23.793Z,7.60
2022-12-25T07:32:56.728Z,7.60
2022-12-25T07:35:28.639Z,7.60
2022-12-25T07:38:00.544Z,7.70
2022-12-25T07:40:32.771Z,7.70
2022-12-25T07:43:05.055Z,7.80
2022-12-25T07:45:37.347Z,7.80
2022-12-25T07:48:16.703Z,8.00
2022-12-25T07:50:49.116Z,8.00
2022-12-25T07:53:21.030Z,8.10
2022-12-25T07:56:20.374Z,8.20
2022-12-25T07:58:52.343Z,8.20
2022-12-25T08:01:26.804Z,8.30
2022-12-25T08:04:01.599Z,8.30
2022-12-25T08:06:35.036Z,8.30
2022-12-25T08:09:09.602Z,8.30
2022-12-25T08:11:46.907Z,8.30
2022-12-25T08:14:18.861Z,8.30
2022-12-25T08:16:50.883Z,8.30
2022-12-25T08:19:22.792Z,8.40
2022-12-25T08:21:54.863Z,8.40
2022-12-25T08:24:26.822Z,8.40
2022-12-25T08:26:58.790Z,8.50
2022-12-25T08:29:31.093Z,8.50
2022-12-25T08:32:03.475Z,8.60
2022-12-25T08:34:37.252Z,8.70
2022-12-25T08:37:09.171Z,8.80
2022-12-25T08:39:41.048Z,8.90
2022-12-25T08:42:13.133Z,8.90
2022-12-25T08:44:45.102Z,8.90
2022-12-25T08:47:16.956Z,8.90
2022-12-25T08:49:48.864Z,8.90
2022-12-25T08:52:20.969Z,8.90
2022-12-25T08:54:52.921Z,8.90
2022-12-25T08:57:24.871Z,8.90
2022-12-25T08:59:56.990Z,8.90
2022-12-25T09:02:29.186Z,8.90
2022-12-25T09:05:01.250Z,8.90
2022-12-25T09:07:33.116Z,9.00
2022-12-25T09:10:05.595Z,9.00
2022-12-25T09:12:37.551Z,9.20
2022-12-25T09:15:10.041Z,9.20
2022-12-25T09:17:41.932Z,9.20
2022-12-25T09:20:13.863Z,9.40
2022-12-25T09:22:45.827Z,9.50
2022-12-25T09:25:17.801Z,9.60
2022-12-25T09:27:49.788Z,9.60
2022-12-25T09:30:21.762Z,9.70
2022-12-25T09:32:53.801Z,9.80
2022-12-25T09:35:25.763Z,9.90
2022-12-25T09:37:57.619Z,10.00
2022-12-25T09:40:32.066Z,10.10
2022-12-25T09:43:04.581Z,10.20
2022-12-25T09:45:39.550Z,10.20
2022-12-25T09:48:14.913Z,10.20
2022-12-25T09:50:59.879Z,10.30
2022-12-25T09:53:40.563Z,10.30
2022-12-25T09:56:25.662Z,10.30
2022-12-25T09:58:57.963Z,10.40
2022-12-25T10:01:56.185Z,10.40
2022-12-25T10:04:53.368Z,10.50
2022-12-25T10:07:28.284Z,10.60
2022-12-25T10:10:37.687Z,10.70
2022-12-25T10:13:22.990Z,10.90
2022-12-25T10:15:59.384Z,11.00
2022-12-25T10:19:08.312Z,11.10
2022-12-25T10:21:41.508Z,11.10
2022-12-25T10:24:40.963Z,11.20
2022-12-25T10:27:35.054Z,11.30
2022-12-25T10:30:16.351Z,11.50
2022-12-25T10:32:49.449Z,11.60
2022-12-25T10:35:27.470Z,11.70
2022-12-25T10:38:06.237Z,11.70
2022-12-25T10:40:41.081Z,11.70
2022-12-25T10:43:28.335Z,11.80
2022-12-25T10:46:00.481Z,11.90
2022-12-25T10:48:33.635Z,12.00
2022-12-25T10:51:31.089Z,12.10
2022-12-25T10:54:17.536Z,12.10
2022-12-25T10:57:17.518Z,12.10
2022-12-25T10:59:52.844Z,12.10
2022-12-25T11:02:24.953Z,12.20
2022-12-25T11:05:10.311Z,12.10
2022-12-25T11:07:51.303Z,12.20
2022-12-25T11:10:38.976Z,12.00
2022-12-25T11:13:25.161Z,12.10
2022-12-25T11:16:05.967Z,12.20
2022-12-25T11:18:49.955Z,12.30
2022-12-25T11:21:29.617Z,12.30
2022-12-25T11:24:20.667Z,12.40
2022-12-25T11:26:55.523Z,12.20
2022-12-25T11:29:47.730Z,12.20
2022-12-25T11:32:25.128Z,12.10
2022-12-25T11:34:58.289Z,12.10
2022-12-25T11:37:38.317Z,12.20
2022-12-25T11:40:23.385Z,12.30
2022-12-25T11:43:07.854Z,12.40
2022-12-25T11:45:47.616Z,12.30
2022-12-25T11:48:56.088Z,12.30
2022-12-25T11:51:33.545Z,12.20
2022-12-25T11:54:16.787Z,12.20
2022-12-25T11:56:49.068Z,12.10
2022-12-25T11:59:34.995Z,12.10
2022-12-25T12:02:26.923Z,12.00
2022-12-25T12:05:19.353Z,12.00
2022-12-25T12:07:57.675Z,12.20
2022-12-25T12:10:51.583Z,12.40
2022-12-25T12:13:27.778Z,12.40
2022-12-25T12:15:59.988Z,12.40
2022-12-25T12:18:33.709Z,12.40
2022-12-25T12:21:19.161Z,12.40
2022-12-25T12:24:06.179Z,12.30
2022-12-25T12:26:40.967Z,12.20
2022-12-25T12:29:40.852Z,12.30
2022-12-25T12:32:33.153Z,12.20
2022-12-25T12:35:15.093Z,12.10
2022-12-25T12:37:53.333Z,12.00
2022-12-25T12:40:33.779Z,12.00
2022-12-25T12:43:08.638Z,12.00
2022-12-25T12:45:40.638Z,12.00
2022-12-25T12:48:24.985Z,12.00
2022-12-25T12:51:29.719Z,12.00
2022-12-25T12:54:22.727Z,12.00
2022-12-25T12:57:23.090Z,12.00
2022-12-25T12:59:59.900Z,12.10
2022-12-25T13:02:56.664Z,12.10
2022-12-25T13:05:51.583Z,12.10
2022-12-25T13:08:47.814Z,12.10
2022-12-25T13:11:23.805Z,12.10
2022-12-25T13:14:00.079Z,12.10
2022-12-25T13:16:36.920Z,12.10
2022-12-25T13:19:14.225Z,12.10
2022-12-25T13:22:00.659Z,12.10
2022-12-25T13:24:35.478Z,12.20
2022-12-25T13:27:40.677Z,12.20
2022-12-25T13:30:19.662Z,12.10
2022-12-25T13:32:51.888Z,12.00
2022-12-25T13:35:24.234Z,11.90
2022-12-25T13:37:56.648Z,11.90
2022-12-25T13:40:28.979Z,12.00
2022-12-25T13:43:01.923Z,12.00
2022-12-25T13:45:35.674Z,11.90
2022-12-25T13:48:16.140Z,11.90
2022-12-25T13:50:57.691Z,11.80
2022-12-25T13:53:29.832Z,11.80
2022-12-25T13:56:01.917Z,11.80
2022-12-25T13:58:37.084Z,11.80
2022-12-25T14:01:11.835Z,11.80
2022-12-25T14:03:46.317Z,11.80
2022-12-25T14:06:20.421Z,11.80
2022-12-25T14:08:54.982Z,11.90
2022-12-25T14:11:32.279Z,11.90
2022-12-25T14:14:26.420Z,11.90
2022-12-25T14:17:00.062Z,11.80
2022-12-25T14:19:34.033Z,11.80
2022-12-25T14:22:21.019Z,11.80
2022-12-25T14:24:53.148Z,11.70
2022-12-25T14:27:32.538Z,11.60
2022-12-25T14:30:05.231Z,11.50
2022-12-25T14:32:43.359Z,11.50
2022-12-25T14:35:23.098Z,11.50
2022-12-25T14:38:00.303Z,11.50
2022-12-25T14:40:33.173Z,11.50
2022-12-25T14:43:20.077Z,11.40
2022-12-25T14:46:00.677Z,11.50
2022-12-25T14:48:33.511Z,11.50
2022-12-25T14:51:16.348Z,11.50
2022-12-25T14:53:51.624Z,11.40
2022-12-25T14:56:25.784Z,11.40
2022-12-25T14:58:59.497Z,11.40
2022-12-25T15:01:41.390Z,11.40
2022-12-25T15:04:15.087Z,11.40
2022-12-25T15:07:06.951Z,11.40
2022-12-25T15:09:40.231Z,11.40
2022-12-25T15:12:12.055Z,11.40
2022-12-25T15:14:44.040Z,11.40
2022-12-25T15:17:27.020Z,11.40
2022-12-25T15:20:01.009Z,11.30
2022-12-25T15:22:53.884Z,11.20
2022-12-25T15:25:25.893Z,11.20
2022-12-25T15:27:58.960Z,11.10
2022-12-25T15:30:30.914Z,11.20
2022-12-25T15:33:02.816Z,11.20
2022-12-25T15:35:34.871Z,11.10
2022-12-25T15:38:06.782Z,11.20
2022-12-25T15:40:39.097Z,11.10
2022-12-25T15:43:39.335Z,11.00
2022-12-25T15:46:08.983Z,11.00
2022-12-25T15:48:40.945Z,11.00
2022-12-25T15:51:12.852Z,11.00
2022-12-25T15:53:44.788Z,11.00
2022-12-25T15:56:16.922Z,11.00
2022-12-25T15:58:48.864Z,11.10
2022-12-25T16:01:21.203Z,11.20
2022-12-25T16:03:53.279Z,11.10
2022-12-25T16:06:26.211Z,11.10
2022-12-25T16:08:58.116Z,11.00
2022-12-25T16:11:30.086Z,10.90
2022-12-25T16:14:02.113Z,10.80
2022-12-25T16:16:34.194Z,10.80
2022-12-25T16:19:06.333Z,10.70
2022-12-25T16:21:45.952Z,10.70
2022-12-25T16:24:17.852Z,10.80
2022-12-25T16:26:49.779Z,10.80
2022-12-25T16:29:21.657Z,10.80
2022-12-25T16:31:53.578Z,10.70
2022-12-25T16:34:25.539Z,10.70
2022-12-25T16:36:57.505Z,10.70
2022-12-25T16:39:29.407Z,10.70
2022-12-25T16:42:01.468Z,10.60
2022-12-25T16:44:37.967Z,10.70
2022-12-25T16:47:09.902Z,10.70
2022-12-25T16:49:41.868Z,10.70
2022-12-25T16:52:13.822Z,10.70
2022-12-25T16:54:46.719Z,10.70
2022-12-25T16:57:18.636Z,10.70
2022-12-25T16:59:50.739Z,10.60
2022-12-25T17:02:33.842Z,10.50
2022-12-25T17:05:06.186Z,10.50
2022-12-25T17:07:38.241Z,10.50
2022-12-25T17:10:11.405Z,10.50
2022-12-25T17:12:45.690Z,10.50
2022-12-25T17:15:18.070Z,10.50
2022-12-25T17:17:50.120Z,10.50
2022-12-25T17:20:22.089Z,10.50
2022-12-25T17:22:54.029Z,10.40
2022-12-25T17:25:26.826Z,10.40
2022-12-25T17:27:58.796Z,10.40
2022-12-25T17:30:31.684Z,10.40
2022-12-25T17:33:03.654Z,10.40
2022-12-25T17:35:37.424Z,10.40
2022-12-25T17:38:09.446Z,10.50
2022-12-25T17:40:41.737Z,10.60
2022-12-25T17:43:18.927Z,10.60
2022-12-25T17:45:53.058Z,10.60
2022-12-25T17:48:25.238Z,10.50
2022-12-25T17:51:01.803Z,10.50
2022-12-25T17:53:39.182Z,10.50
2022-12-25T17:56:12.856Z,10.50
2022-12-25T17:58:45.854Z,10.50
2022-12-25T18:01:18.974Z,10.50
2022-12-25T18:03:52.076Z,10.40
2022-12-25T18:06:27.328Z,10.30
2022-12-25T18:08:59.349Z,10.30
2022-12-25T18:11:33.317Z,10.30
2022-12-25T18:14:07.081Z,10.40
2022-12-25T18:16:42.083Z,10.40
2022-12-25T18:19:18.506Z,10.40
2022-12-25T18:21:51.129Z,10.40
2022-12-25T18:24:23.090Z,10.30
2022-12-25T18:26:55.114Z,10.30
2022-12-25T18:29:27.110Z,10.40
2022-12-25T18:31:59.045Z,10.40
2022-12-25T18:34:31.153Z,10.30
2022-12-25T18:37:03.316Z,10.40
2022-12-25T18:39:35.413Z,10.30
2022-12-25T18:42:25.873Z,10.20
2022-12-25T18:44:58.379Z,10.20
2022-12-25T18:47:30.549Z,10.20
2022-12-25T18:50:02.560Z,10.20
2022-12-25T18:52:47.809Z,10.20
2022-12-25T18:55:23.559Z,10.10
2022-12-25T18:57:56.647Z,10.10
2022-12-25T19:00:31.672Z,10.00
2022-12-25T19:03:03.936Z,10.00
2022-12-25T19:05:39.648Z,10.00
2022-12-25T19:08:11.751Z,10.10
2022-12-25T19:10:44.363Z,10.10
2022-12-25T19:13:16.331Z,10.10
2022-12-25T19:15:48.336Z,10.10
2022-12-25T19:18:20.317Z,10.10
2022-12-25T19:20:52.656Z,10.10
2022-12-25T19:23:24.628Z,10.00
2022-12-25T19:25:56.654Z,10.00
2022-12-25T19:28:28.636Z,10.00
2022-12-25T19:31:01.851Z,10.00
2022-12-25T19:33:35.698Z,10.00
2022-12-25T19:36:15.572Z,9.90
2022-12-25T19:38:47.584Z,9.90
2022-12-25T19:41:20.072Z,9.90
2022-12-25T19:43:52.471Z,9.80
2022-12-25T19:46:27.348Z,9.80
2022-12-25T19:49:04.128Z,9.90
2022-12-25T19:51:38.249Z,9.90
2022-12-25T19:54:13.975Z,10.00
2022-12-25T19:56:46.331Z,10.10
2022-12-25T19:59:18.324Z,10.00
2022-12-25T20:01:50.600Z,10.10
2022-12-25T20:04:22.915Z,10.10
2022-12-25T20:06:54.926Z,10.10
2022-12-25T20:09:27.019Z,10.10
2022-12-25T20:11:58.939Z,10.00
2022-12-25T20:14:30.873Z,9.90
2022-12-25T20:17:03.217Z,9.90
2022-12-25T20:19:35.357Z,9.80
2022-12-25T20:22:07.363Z,9.90
2022-12-25T20:24:39.493Z,9.80
2022-12-25T20:27:11.559Z,9.80
2022-12-25T20:29:43.502Z,9.80
2022-12-25T20:32:15.697Z,9.90
2022-12-25T20:34:47.895Z,9.80
2022-12-25T20:37:22.584Z,9.80
2022-12-25T20:39:54.732Z,9.90
2022-12-25T20:42:26.832Z,9.90
2022-12-25T20:44:58.789Z,9.90
2022-12-25T20:47:30.725Z,9.90
2022-12-25T20:50:03.098Z,9.90
2022-12-25T20:52:35.147Z,9.90
2022-12-25T20:55:07.264Z,9.90
2022-12-25T20:57:39.269Z,10.00
2022-12-25T21:00:12.201Z,9.90
2022-12-25T21:02:44.455Z,10.00
2022-12-25T21:05:16.729Z,9.90
2022-12-25T21:07:48.728Z,9.80
2022-12-25T21:10:20.732Z,9.80
2022-12-25T21:12:53.973Z,9.80
2022-12-25T21:15:25.911Z,9.80
2022-12-25T21:17:57.831Z,9.90
2022-12-25T21:20:29.872Z,9.90
2022-12-25T21:23:01.890Z,9.80
2022-12-25T21:25:33.860Z,9.80
2022-12-25T21:28:05.891Z,9.70
2022-12-25T21:30:38.168Z,9.60
2022-12-25T21:33:32.311Z,9.50
2022-12-25T21:36:11.480Z,9.50
2022-12-25T21:38:45.408Z,9.50
2022-12-25T21:41:17.358Z,9.50
2022-12-25T21:43:49.399Z,9.50
2022-12-25T21:46:22.030Z,9.50
2022-12-25T21:48:55.147Z,9.60
2022-12-25T21:51:51.039Z,9.50
2022-12-25T21:54:23.731Z,9.90
2022-12-25T21:56:55.936Z,9.90
2022-12-25T21:59:27.974Z,9.90
2022-12-25T22:02:00.050Z,9.80
2022-12-25T22:04:32.088Z,9.80
2022-12-25T22:07:19.600Z,9.80
2022-12-25T22:09:51.938Z,9.80
2022-12-25T22:13:08.115Z,9.60
2022-12-25T22:15:58.647Z,9.60
2022-12-25T22:18:49.463Z,9.60
2022-12-25T22:21:22.103Z,9.60
2022-12-25T22:23:54.697Z,9.50
2022-12-25T22:26:26.696Z,9.50
2022-12-25T22:28:58.913Z,9.50
2022-12-25T22:31:31.086Z,9.60
2022-12-25T22:34:03.037Z,9.60
2022-12-25T22:36:34.977Z,9.60
2022-12-25T22:39:06.882Z,9.60
2022-12-25T22:41:38.832Z,9.60
2022-12-25T22:44:18.614Z,9.50
2022-12-25T22:46:51.476Z,9.50
2022-12-25T22:49:24.439Z,9.50
2022-12-25T22:51:56.592Z,9.60
2022-12-25T22:54:31.324Z,9.60
2022-12-25T22:57:03.501Z,9.60
2022-12-25T22:59:35.564Z,9.60
2022-12-25T23:02:07.665Z,9.70
2022-12-25T23:04:39.794Z,9.70
2022-12-25T23:07:14.582Z,9.60
2022-12-25T23:09:46.766Z,9.60
2022-12-25T23:12:38.944Z,9.60
2022-12-25T23:15:11.058Z,9.60
2022-12-25T23:18:01.280Z,9.60
2022-12-25T23:20:51.617Z,9.50
2022-12-25T23:23:42.291Z,9.40
2022-12-25T23:26:16.458Z,9.50
2022-12-25T23:29:07.334Z,9.50
2022-12-25T23:31:41.437Z,9.50
2022-12-25T23:34:14.121Z,9.50
2022-12-25T23:36:46.267Z,9.60
2022-12-25T23:39:18.161Z,9.60
2022-12-25T23:41:50.069Z,9.60
2022-12-25T23:44:21.965Z,9.60
2022-12-25T23:46:54.067Z,9.70
2022-12-25T23:49:27.271Z,9.70
2022-12-25T23:51:59.215Z,9.50
2022-12-25T23:54:32.620Z,9.40
2022-12-25T23:57:05.672Z,9.40
2022-12-25T23:59:37.635Z,9.50
